sensor_id;sensor_type;location;lat;lon;timestamp;P1;durP1;ratioP1;P2;durP2;ratioP2
13641;SDS011;6894;52.196;9.904;2022-12-10T00:01:20;80.13;;;27.17;;
13641;SDS011;6894;52.196;9.904;2022-12-10T00:03:47;58.73;;;23.43;;
13641;SDS011;6894;52.196;9.904;2022-12-10T00:06:17;63.50;;;23.70;;
13641;SDS011;6894;52.196;9.904;2022-12-10T00:08:45;56.23;;;21.87;;
13641;SDS011;6894;52.196;9.904;2022-12-10T00:11:20;61.23;;;21.43;;
13641;SDS011;6894;52.196;9.904;2022-12-10T00:14:01;52.47;;;20.63;;
13641;SDS011;6894;52.196;9.904;2022-12-10T00:16:27;44.40;;;20.10;;
13641;SDS011;6894;52.196;9.904;2022-12-10T00:18:55;70.13;;;21.73;;
13641;SDS011;6894;52.196;9.904;2022-12-10T00:21:24;48.53;;;20.00;;
13641;SDS011;6894;52.196;9.904;2022-12-10T00:23:52;59.20;;;19.87;;
13641;SDS011;6894;52.196;9.904;2022-12-10T00:26:20;54.70;;;19.83;;
13641;SDS011;6894;52.196;9.904;2022-12-10T00:28:48;60.67;;;21.07;;
13641;SDS011;6894;52.196;9.904;2022-12-10T00:31:17;47.53;;;20.17;;
13641;SDS011;6894;52.196;9.904;2022-12-10T00:33:45;60.67;;;20.30;;
13641;SDS011;6894;52.196;9.904;2022-12-10T00:36:13;52.93;;;19.47;;
13641;SDS011;6894;52.196;9.904;2022-12-10T00:38:42;55.30;;;19.30;;
13641;SDS011;6894;52.196;9.904;2022-12-10T00:41:09;45.83;;;18.77;;
13641;SDS011;6894;52.196;9.904;2022-12-10T00:43:37;59.67;;;21.13;;
13641;SDS011;6894;52.196;9.904;2022-12-10T00:46:05;44.27;;;19.33;;
13641;SDS011;6894;52.196;9.904;2022-12-10T00:48:32;51.00;;;20.20;;
13641;SDS011;6894;52.196;9.904;2022-12-10T00:51:00;47.83;;;19.37;;
13641;SDS011;6894;52.196;9.904;2022-12-10T00:53:29;52.77;;;20.13;;
13641;SDS011;6894;52.196;9.904;2022-12-10T00:55:58;40.67;;;17.37;;
13641;SDS011;6894;52.196;9.904;2022-12-10T00:58:26;49.97;;;19.70;;
13641;SDS011;6894;52.196;9.904;2022-12-10T01:00:54;40.93;;;16.67;;
13641;SDS011;6894;52.196;9.904;2022-12-10T01:03:32;46.63;;;17.87;;
13641;SDS011;6894;52.196;9.904;2022-12-10T01:06:06;45.70;;;18.20;;
13641;SDS011;6894;52.196;9.904;2022-12-10T01:08:34;45.13;;;18.00;;
13641;SDS011;6894;52.196;9.904;2022-12-10T01:11:02;49.37;;;18.10;;
13641;SDS011;6894;52.196;9.904;2022-12-10T01:13:29;52.27;;;18.43;;
13641;SDS011;6894;52.196;9.904;2022-12-10T01:15:56;51.40;;;17.83;;
13641;SDS011;6894;52.196;9.904;2022-12-10T01:18:22;46.63;;;18.03;;
13641;SDS011;6894;52.196;9.904;2022-12-10T01:20:49;47.57;;;17.40;;
13641;SDS011;6894;52.196;9.904;2022-12-10T01:23:16;42.40;;;18.00;;
13641;SDS011;6894;52.196;9.904;2022-12-10T01:25:43;53.77;;;19.60;;
13641;SDS011;6894;52.196;9.904;2022-12-10T01:28:11;42.10;;;18.73;;
13641;SDS011;6894;52.196;9.904;2022-12-10T01:30:38;56.40;;;18.80;;
13641;SDS011;6894;52.196;9.904;2022-12-10T01:33:04;43.43;;;18.30;;
13641;SDS011;6894;52.196;9.904;2022-12-10T01:35:31;47.23;;;19.70;;
13641;SDS011;6894;52.196;9.904;2022-12-10T01:38:01;48.00;;;21.10;;
13641;SDS011;6894;52.196;9.904;2022-12-10T01:40:28;49.83;;;19.57;;
13641;SDS011;6894;52.196;9.904;2022-12-10T01:42:55;43.03;;;20.23;;
13641;SDS011;6894;52.196;9.904;2022-12-10T01:45:23;62.17;;;23.03;;
13641;SDS011;6894;52.196;9.904;2022-12-10T01:47:50;48.23;;;20.57;;
13641;SDS011;6894;52.196;9.904;2022-12-10T01:50:17;53.83;;;19.93;;
13641;SDS011;6894;52.196;9.904;2022-12-10T01:52:44;38.60;;;17.73;;
13641;SDS011;6894;52.196;9.904;2022-12-10T01:58:03;45.03;;;18.33;;
13641;SDS011;6894;52.196;9.904;2022-12-10T02:00:31;55.17;;;21.10;;
13641;SDS011;6894;52.196;9.904;2022-12-10T02:03:02;43.77;;;18.87;;
13641;SDS011;6894;52.196;9.904;2022-12-10T02:05:36;57.20;;;20.17;;
13641;SDS011;6894;52.196;9.904;2022-12-10T02:08:08;38.60;;;17.33;;
13641;SDS011;6894;52.196;9.904;2022-12-10T02:10:46;53.53;;;18.83;;
13641;SDS011;6894;52.196;9.904;2022-12-10T02:13:21;47.27;;;19.13;;
13641;SDS011;6894;52.196;9.904;2022-12-10T02:15:57;50.73;;;19.80;;
13641;SDS011;6894;52.196;9.904;2022-12-10T02:18:29;48.27;;;20.07;;
13641;SDS011;6894;52.196;9.904;2022-12-10T02:21:02;59.27;;;21.53;;
13641;SDS011;6894;52.196;9.904;2022-12-10T02:23:35;51.80;;;22.57;;
13641;SDS011;6894;52.196;9.904;2022-12-10T02:26:05;63.20;;;21.90;;
13641;SDS011;6894;52.196;9.904;2022-12-10T02:28:51;55.13;;;21.33;;
13641;SDS011;6894;52.196;9.904;2022-12-10T02:31:25;63.50;;;22.03;;
13641;SDS011;6894;52.196;9.904;2022-12-10T02:33:56;54.13;;;21.30;;
13641;SDS011;6894;52.196;9.904;2022-12-10T02:36:26;63.90;;;22.70;;
13641;SDS011;6894;52.196;9.904;2022-12-10T02:38:56;44.40;;;18.80;;
13641;SDS011;6894;52.196;9.904;2022-12-10T02:41:28;64.17;;;23.07;;
13641;SDS011;6894;52.196;9.904;2022-12-10T02:43:59;125.63;;;47.77;;
13641;SDS011;6894;52.196;9.904;2022-12-10T02:46:32;61.57;;;22.97;;
13641;SDS011;6894;52.196;9.904;2022-12-10T02:49:00;48.67;;;19.47;;
13641;SDS011;6894;52.196;9.904;2022-12-10T02:51:29;55.17;;;20.07;;
13641;SDS011;6894;52.196;9.904;2022-12-10T02:53:59;50.93;;;20.97;;
13641;SDS011;6894;52.196;9.904;2022-12-10T02:56:27;62.00;;;23.33;;
13641;SDS011;6894;52.196;9.904;2022-12-10T02:59:01;57.70;;;23.00;;
13641;SDS011;6894;52.196;9.904;2022-12-10T03:01:41;48.63;;;20.67;;
13641;SDS011;6894;52.196;9.904;2022-12-10T03:04:20;57.63;;;21.63;;
13641;SDS011;6894;52.196;9.904;2022-12-10T03:06:52;49.07;;;19.07;;
13641;SDS011;6894;52.196;9.904;2022-12-10T03:09:23;50.23;;;19.77;;
13641;SDS011;6894;52.196;9.904;2022-12-10T03:11:56;44.40;;;19.10;;
13641;SDS011;6894;52.196;9.904;2022-12-10T03:14:25;56.20;;;21.00;;
13641;SDS011;6894;52.196;9.904;2022-12-10T03:16:57;43.07;;;18.17;;
13641;SDS011;6894;52.196;9.904;2022-12-10T03:19:26;57.03;;;19.60;;
13641;SDS011;6894;52.196;9.904;2022-12-10T03:21:57;46.97;;;20.10;;
13641;SDS011;6894;52.196;9.904;2022-12-10T03:24:26;53.37;;;19.03;;
13641;SDS011;6894;52.196;9.904;2022-12-10T03:26:53;43.97;;;19.50;;
13641;SDS011;6894;52.196;9.904;2022-12-10T03:29:23;54.10;;;21.23;;
13641;SDS011;6894;52.196;9.904;2022-12-10T03:31:55;45.53;;;20.07;;
13641;SDS011;6894;52.196;9.904;2022-12-10T03:34:25;55.03;;;20.90;;
13641;SDS011;6894;52.196;9.904;2022-12-10T03:36:52;38.63;;;18.10;;
13641;SDS011;6894;52.196;9.904;2022-12-10T03:39:19;51.27;;;17.63;;
13641;SDS011;6894;52.196;9.904;2022-12-10T03:41:46;40.27;;;18.87;;
13641;SDS011;6894;52.196;9.904;2022-12-10T03:44:13;60.97;;;22.27;;
13641;SDS011;6894;52.196;9.904;2022-12-10T03:46:52;54.43;;;21.53;;
13641;SDS011;6894;52.196;9.904;2022-12-10T03:49:20;62.03;;;23.70;;
13641;SDS011;6894;52.196;9.904;2022-12-10T03:51:47;51.87;;;21.97;;
13641;SDS011;6894;52.196;9.904;2022-12-10T03:54:14;65.67;;;21.37;;
13641;SDS011;6894;52.196;9.904;2022-12-10T03:56:41;48.77;;;21.10;;
13641;SDS011;6894;52.196;9.904;2022-12-10T03:59:08;62.20;;;23.60;;
13641;SDS011;6894;52.196;9.904;2022-12-10T04:01:35;45.60;;;18.80;;
13641;SDS011;6894;52.196;9.904;2022-12-10T04:04:02;51.67;;;18.90;;
13641;SDS011;6894;52.196;9.904;2022-12-10T04:06:30;47.80;;;18.97;;
13641;SDS011;6894;52.196;9.904;2022-12-10T04:08:57;53.67;;;20.77;;
13641;SDS011;6894;52.196;9.904;2022-12-10T04:11:24;41.63;;;18.50;;
13641;SDS011;6894;52.196;9.904;2022-12-10T04:13:51;50.40;;;22.33;;
13641;SDS011;6894;52.196;9.904;2022-12-10T04:16:35;42.50;;;19.73;;
13641;SDS011;6894;52.196;9.904;2022-12-10T04:19:03;51.63;;;17.70;;
13641;SDS011;6894;52.196;9.904;2022-12-10T04:21:33;40.20;;;19.03;;
13641;SDS011;6894;52.196;9.904;2022-12-10T04:24:20;66.33;;;22.40;;
13641;SDS011;6894;52.196;9.904;2022-12-10T04:27:06;46.40;;;19.77;;
13641;SDS011;6894;52.196;9.904;2022-12-10T04:29:35;52.07;;;20.67;;
13641;SDS011;6894;52.196;9.904;2022-12-10T04:32:03;42.80;;;16.87;;
13641;SDS011;6894;52.196;9.904;2022-12-10T04:34:30;57.50;;;19.23;;
13641;SDS011;6894;52.196;9.904;2022-12-10T04:36:58;36.67;;;17.00;;
13641;SDS011;6894;52.196;9.904;2022-12-10T04:39:26;53.50;;;19.53;;
13641;SDS011;6894;52.196;9.904;2022-12-10T04:41:54;45.10;;;17.57;;
13641;SDS011;6894;52.196;9.904;2022-12-10T04:44:21;36.63;;;17.13;;
13641;SDS011;6894;52.196;9.904;2022-12-10T04:46:48;54.93;;;18.77;;
13641;SDS011;6894;52.196;9.904;2022-12-10T04:49:15;46.43;;;18.20;;
13641;SDS011;6894;52.196;9.904;2022-12-10T04:51:42;53.80;;;19.70;;
13641;SDS011;6894;52.196;9.904;2022-12-10T04:54:11;47.00;;;18.27;;
13641;SDS011;6894;52.196;9.904;2022-12-10T04:56:39;51.03;;;19.07;;
13641;SDS011;6894;52.196;9.904;2022-12-10T04:59:06;38.97;;;15.73;;
13641;SDS011;6894;52.196;9.904;2022-12-10T05:01:34;45.80;;;19.27;;
13641;SDS011;6894;52.196;9.904;2022-12-10T05:04:02;40.60;;;16.73;;
13641;SDS011;6894;52.196;9.904;2022-12-10T05:06:32;45.77;;;17.77;;
13641;SDS011;6894;52.196;9.904;2022-12-10T05:08:59;43.30;;;17.53;;
13641;SDS011;6894;52.196;9.904;2022-12-10T05:11:29;51.17;;;19.00;;
13641;SDS011;6894;52.196;9.904;2022-12-10T05:13:57;56.37;;;19.63;;
13641;SDS011;6894;52.196;9.904;2022-12-10T05:16:25;42.70;;;18.47;;
13641;SDS011;6894;52.196;9.904;2022-12-10T05:18:53;49.17;;;19.40;;
13641;SDS011;6894;52.196;9.904;2022-12-10T05:21:21;39.73;;;17.83;;
13641;SDS011;6894;52.196;9.904;2022-12-10T05:23:50;54.33;;;17.47;;
13641;SDS011;6894;52.196;9.904;2022-12-10T05:26:17;47.33;;;17.97;;
13641;SDS011;6894;52.196;9.904;2022-12-10T05:28:48;46.47;;;17.80;;
13641;SDS011;6894;52.196;9.904;2022-12-10T05:31:16;42.47;;;17.63;;
13641;SDS011;6894;52.196;9.904;2022-12-10T05:33:44;46.23;;;16.50;;
13641;SDS011;6894;52.196;9.904;2022-12-10T05:36:12;44.00;;;15.70;;
13641;SDS011;6894;52.196;9.904;2022-12-10T05:38:41;43.43;;;15.87;;
13641;SDS011;6894;52.196;9.904;2022-12-10T05:41:09;39.63;;;16.07;;
13641;SDS011;6894;52.196;9.904;2022-12-10T05:43:39;39.70;;;15.40;;
13641;SDS011;6894;52.196;9.904;2022-12-10T05:46:08;46.60;;;16.93;;
13641;SDS011;6894;52.196;9.904;2022-12-10T05:48:38;47.93;;;17.00;;
13641;SDS011;6894;52.196;9.904;2022-12-10T05:51:05;36.63;;;16.30;;
13641;SDS011;6894;52.196;9.904;2022-12-10T05:53:33;42.17;;;14.60;;
13641;SDS011;6894;52.196;9.904;2022-12-10T05:56:00;45.37;;;16.37;;
13641;SDS011;6894;52.196;9.904;2022-12-10T05:58:27;47.77;;;16.57;;
13641;SDS011;6894;52.196;9.904;2022-12-10T06:00:54;43.73;;;15.63;;
13641;SDS011;6894;52.196;9.904;2022-12-10T06:03:23;45.97;;;16.97;;
13641;SDS011;6894;52.196;9.904;2022-12-10T06:05:50;42.67;;;15.67;;
13641;SDS011;6894;52.196;9.904;2022-12-10T06:08:17;41.17;;;15.93;;
13641;SDS011;6894;52.196;9.904;2022-12-10T06:10:43;47.63;;;16.97;;
13641;SDS011;6894;52.196;9.904;2022-12-10T06:13:10;40.33;;;14.93;;
13641;SDS011;6894;52.196;9.904;2022-12-10T06:15:38;41.13;;;15.07;;
13641;SDS011;6894;52.196;9.904;2022-12-10T06:18:06;38.13;;;15.57;;
13641;SDS011;6894;52.196;9.904;2022-12-10T06:20:36;34.77;;;13.70;;
13641;SDS011;6894;52.196;9.904;2022-12-10T06:23:03;43.67;;;15.03;;
13641;SDS011;6894;52.196;9.904;2022-12-10T06:25:30;36.97;;;14.13;;
13641;SDS011;6894;52.196;9.904;2022-12-10T06:27:57;33.47;;;13.80;;
13641;SDS011;6894;52.196;9.904;2022-12-10T06:30:24;34.10;;;14.33;;
13641;SDS011;6894;52.196;9.904;2022-12-10T06:32:51;37.93;;;13.87;;
13641;SDS011;6894;52.196;9.904;2022-12-10T06:35:17;33.27;;;12.57;;
13641;SDS011;6894;52.196;9.904;2022-12-10T06:37:46;31.50;;;13.60;;
13641;SDS011;6894;52.196;9.904;2022-12-10T06:40:12;42.70;;;15.13;;
13641;SDS011;6894;52.196;9.904;2022-12-10T06:42:39;35.30;;;12.73;;
13641;SDS011;6894;52.196;9.904;2022-12-10T06:45:06;36.80;;;14.00;;
13641;SDS011;6894;52.196;9.904;2022-12-10T06:47:34;37.63;;;13.83;;
13641;SDS011;6894;52.196;9.904;2022-12-10T06:50:00;28.67;;;12.97;;
13641;SDS011;6894;52.196;9.904;2022-12-10T06:52:27;34.43;;;13.70;;
13641;SDS011;6894;52.196;9.904;2022-12-10T06:54:55;30.67;;;14.07;;
13641;SDS011;6894;52.196;9.904;2022-12-10T06:57:22;34.60;;;14.20;;
13641;SDS011;6894;52.196;9.904;2022-12-10T06:59:49;35.43;;;13.37;;
13641;SDS011;6894;52.196;9.904;2022-12-10T07:02:15;34.33;;;13.60;;
13641;SDS011;6894;52.196;9.904;2022-12-10T07:04:42;38.40;;;15.40;;
13641;SDS011;6894;52.196;9.904;2022-12-10T07:07:09;35.77;;;13.60;;
13641;SDS011;6894;52.196;9.904;2022-12-10T07:09:35;41.20;;;14.03;;
13641;SDS011;6894;52.196;9.904;2022-12-10T07:12:04;42.47;;;16.60;;
13641;SDS011;6894;52.196;9.904;2022-12-10T07:14:31;40.60;;;16.90;;
13641;SDS011;6894;52.196;9.904;2022-12-10T07:16:58;38.17;;;15.67;;
13641;SDS011;6894;52.196;9.904;2022-12-10T07:19:27;38.80;;;16.23;;
13641;SDS011;6894;52.196;9.904;2022-12-10T07:21:53;42.53;;;14.77;;
13641;SDS011;6894;52.196;9.904;2022-12-10T07:24:20;42.03;;;15.73;;
13641;SDS011;6894;52.196;9.904;2022-12-10T07:26:47;43.53;;;16.20;;
13641;SDS011;6894;52.196;9.904;2022-12-10T07:29:16;31.13;;;14.83;;
13641;SDS011;6894;52.196;9.904;2022-12-10T07:31:44;33.60;;;13.60;;
13641;SDS011;6894;52.196;9.904;2022-12-10T07:34:12;39.50;;;16.43;;
13641;SDS011;6894;52.196;9.904;2022-12-10T07:36:39;36.30;;;15.20;;
13641;SDS011;6894;52.196;9.904;2022-12-10T07:39:07;43.67;;;16.57;;
13641;SDS011;6894;52.196;9.904;2022-12-10T07:41:41;28.33;;;12.33;;
13641;SDS011;6894;52.196;9.904;2022-12-10T07:44:09;30.20;;;13.73;;
13641;SDS011;6894;52.196;9.904;2022-12-10T07:46:39;35.17;;;12.93;;
13641;SDS011;6894;52.196;9.904;2022-12-10T07:49:06;31.17;;;12.87;;
13641;SDS011;6894;52.196;9.904;2022-12-10T07:51:33;28.87;;;11.90;;
13641;SDS011;6894;52.196;9.904;2022-12-10T07:54:00;37.50;;;15.03;;
13641;SDS011;6894;52.196;9.904;2022-12-10T07:56:26;41.50;;;13.80;;
13641;SDS011;6894;52.196;9.904;2022-12-10T07:58:53;27.70;;;12.60;;
13641;SDS011;6894;52.196;9.904;2022-12-10T08:01:20;30.70;;;12.50;;
13641;SDS011;6894;52.196;9.904;2022-12-10T08:03:50;35.97;;;13.60;;
13641;SDS011;6894;52.196;9.904;2022-12-10T08:06:18;30.40;;;12.53;;
13641;SDS011;6894;52.196;9.904;2022-12-10T08:08:46;26.73;;;12.20;;
13641;SDS011;6894;52.196;9.904;2022-12-10T08:11:14;31.23;;;13.00;;
13641;SDS011;6894;52.196;9.904;2022-12-10T08:13:42;34.57;;;13.23;;
13641;SDS011;6894;52.196;9.904;2022-12-10T08:16:11;31.87;;;12.63;;
13641;SDS011;6894;52.196;9.904;2022-12-10T08:18:39;33.57;;;12.63;;
13641;SDS011;6894;52.196;9.904;2022-12-10T08:21:08;32.80;;;12.57;;
13641;SDS011;6894;52.196;9.904;2022-12-10T08:23:36;25.23;;;10.50;;
13641;SDS011;6894;52.196;9.904;2022-12-10T08:26:03;39.67;;;14.43;;
13641;SDS011;6894;52.196;9.904;2022-12-10T08:28:30;33.30;;;13.80;;
13641;SDS011;6894;52.196;9.904;2022-12-10T08:30:57;36.77;;;13.33;;
13641;SDS011;6894;52.196;9.904;2022-12-10T08:33:24;23.13;;;11.23;;
13641;SDS011;6894;52.196;9.904;2022-12-10T08:35:51;31.80;;;11.33;;
13641;SDS011;6894;52.196;9.904;2022-12-10T08:38:19;29.90;;;12.37;;
13641;SDS011;6894;52.196;9.904;2022-12-10T08:40:46;34.90;;;12.47;;
13641;SDS011;6894;52.196;9.904;2022-12-10T08:43:12;34.53;;;12.70;;
13641;SDS011;6894;52.196;9.904;2022-12-10T08:45:39;44.27;;;13.93;;
13641;SDS011;6894;52.196;9.904;2022-12-10T08:48:06;33.60;;;13.70;;
13641;SDS011;6894;52.196;9.904;2022-12-10T08:50:33;38.27;;;13.03;;
13641;SDS011;6894;52.196;9.904;2022-12-10T08:52:59;33.80;;;12.17;;
13641;SDS011;6894;52.196;9.904;2022-12-10T08:55:28;30.77;;;13.50;;
13641;SDS011;6894;52.196;9.904;2022-12-10T08:57:55;28.30;;;12.40;;
13641;SDS011;6894;52.196;9.904;2022-12-10T09:00:22;31.17;;;13.50;;
13641;SDS011;6894;52.196;9.904;2022-12-10T09:02:49;35.20;;;14.20;;
13641;SDS011;6894;52.196;9.904;2022-12-10T09:05:15;33.40;;;13.73;;
13641;SDS011;6894;52.196;9.904;2022-12-10T09:07:42;37.83;;;14.80;;
13641;SDS011;6894;52.196;9.904;2022-12-10T09:10:09;41.47;;;15.20;;
13641;SDS011;6894;52.196;9.904;2022-12-10T09:12:38;33.97;;;13.80;;
13641;SDS011;6894;52.196;9.904;2022-12-10T09:15:05;37.40;;;16.27;;
13641;SDS011;6894;52.196;9.904;2022-12-10T09:17:35;37.57;;;14.93;;
13641;SDS011;6894;52.196;9.904;2022-12-10T09:20:03;33.77;;;15.03;;
13641;SDS011;6894;52.196;9.904;2022-12-10T09:22:31;36.40;;;15.60;;
13641;SDS011;6894;52.196;9.904;2022-12-10T09:25:01;26.83;;;13.30;;
13641;SDS011;6894;52.196;9.904;2022-12-10T09:27:29;39.00;;;15.63;;
13641;SDS011;6894;52.196;9.904;2022-12-10T09:29:57;31.23;;;14.27;;
13641;SDS011;6894;52.196;9.904;2022-12-10T09:32:25;44.60;;;15.30;;
13641;SDS011;6894;52.196;9.904;2022-12-10T09:34:51;32.07;;;14.67;;
13641;SDS011;6894;52.196;9.904;2022-12-10T09:37:18;39.70;;;16.00;;
13641;SDS011;6894;52.196;9.904;2022-12-10T09:39:45;32.80;;;14.47;;
13641;SDS011;6894;52.196;9.904;2022-12-10T09:42:18;39.27;;;15.57;;
13641;SDS011;6894;52.196;9.904;2022-12-10T09:45:00;32.07;;;15.07;;
13641;SDS011;6894;52.196;9.904;2022-12-10T09:47:34;38.27;;;15.20;;
13641;SDS011;6894;52.196;9.904;2022-12-10T09:50:09;38.37;;;15.57;;
13641;SDS011;6894;52.196;9.904;2022-12-10T09:52:43;38.03;;;15.90;;
13641;SDS011;6894;52.196;9.904;2022-12-10T09:55:13;35.20;;;13.57;;
13641;SDS011;6894;52.196;9.904;2022-12-10T09:57:43;45.57;;;17.07;;
13641;SDS011;6894;52.196;9.904;2022-12-10T10:00:19;35.00;;;15.63;;
13641;SDS011;6894;52.196;9.904;2022-12-10T10:02:48;39.50;;;17.83;;
13641;SDS011;6894;52.196;9.904;2022-12-10T10:05:19;50.97;;;29.70;;
13641;SDS011;6894;52.196;9.904;2022-12-10T10:07:48;54.83;;;26.67;;
13641;SDS011;6894;52.196;9.904;2022-12-10T10:10:20;42.13;;;18.80;;
13641;SDS011;6894;52.196;9.904;2022-12-10T10:12:51;48.27;;;17.73;;
13641;SDS011;6894;52.196;9.904;2022-12-10T10:15:24;35.10;;;15.43;;
13641;SDS011;6894;52.196;9.904;2022-12-10T10:17:54;49.77;;;20.07;;
13641;SDS011;6894;52.196;9.904;2022-12-10T10:20:25;39.47;;;17.03;;
13641;SDS011;6894;52.196;9.904;2022-12-10T10:22:52;49.10;;;20.00;;
13641;SDS011;6894;52.196;9.904;2022-12-10T10:25:22;43.17;;;18.07;;
13641;SDS011;6894;52.196;9.904;2022-12-10T10:27:49;54.93;;;18.90;;
13641;SDS011;6894;52.196;9.904;2022-12-10T10:30:17;42.30;;;18.97;;
13641;SDS011;6894;52.196;9.904;2022-12-10T10:32:48;53.17;;;20.87;;
13641;SDS011;6894;52.196;9.904;2022-12-10T10:35:23;52.63;;;21.63;;
13641;SDS011;6894;52.196;9.904;2022-12-10T10:37:53;100.47;;;34.03;;
13641;SDS011;6894;52.196;9.904;2022-12-10T10:40:25;46.70;;;19.90;;
13641;SDS011;6894;52.196;9.904;2022-12-10T10:42:54;70.73;;;26.67;;
13641;SDS011;6894;52.196;9.904;2022-12-10T10:45:37;84.37;;;33.63;;
13641;SDS011;6894;52.196;9.904;2022-12-10T10:48:11;94.13;;;31.43;;
13641;SDS011;6894;52.196;9.904;2022-12-10T10:50:40;59.07;;;21.70;;
13641;SDS011;6894;52.196;9.904;2022-12-10T10:53:24;57.03;;;22.17;;
13641;SDS011;6894;52.196;9.904;2022-12-10T10:55:54;52.63;;;20.77;;
13641;SDS011;6894;52.196;9.904;2022-12-10T10:58:24;57.03;;;20.10;;
13641;SDS011;6894;52.196;9.904;2022-12-10T11:00:55;51.83;;;20.40;;
13641;SDS011;6894;52.196;9.904;2022-12-10T11:03:26;54.07;;;19.93;;
13641;SDS011;6894;52.196;9.904;2022-12-10T11:05:55;48.33;;;19.93;;
13641;SDS011;6894;52.196;9.904;2022-12-10T11:08:24;55.40;;;20.57;;
13641;SDS011;6894;52.196;9.904;2022-12-10T11:10:56;45.27;;;18.57;;
13641;SDS011;6894;52.196;9.904;2022-12-10T11:13:28;56.87;;;21.37;;
13641;SDS011;6894;52.196;9.904;2022-12-10T11:15:57;44.17;;;19.20;;
13641;SDS011;6894;52.196;9.904;2022-12-10T11:18:29;46.40;;;19.93;;
13641;SDS011;6894;52.196;9.904;2022-12-10T11:21:02;58.03;;;24.27;;
13641;SDS011;6894;52.196;9.904;2022-12-10T11:23:31;70.40;;;26.40;;
13641;SDS011;6894;52.196;9.904;2022-12-10T11:26:08;51.47;;;22.80;;
13641;SDS011;6894;52.196;9.904;2022-12-10T11:28:45;52.07;;;20.93;;
13641;SDS011;6894;52.196;9.904;2022-12-10T11:31:37;54.37;;;22.17;;
13641;SDS011;6894;52.196;9.904;2022-12-10T11:34:15;39.00;;;19.67;;
13641;SDS011;6894;52.196;9.904;2022-12-10T11:36:49;147.80;;;59.43;;
13641;SDS011;6894;52.196;9.904;2022-12-10T11:39:34;89.43;;;44.83;;
13641;SDS011;6894;52.196;9.904;2022-12-10T11:42:31;84.67;;;33.10;;
13641;SDS011;6894;52.196;9.904;2022-12-10T11:45:07;42.20;;;21.37;;
13641;SDS011;6894;52.196;9.904;2022-12-10T11:47:50;70.33;;;28.77;;
13641;SDS011;6894;52.196;9.904;2022-12-10T11:50:31;48.10;;;22.00;;
13641;SDS011;6894;52.196;9.904;2022-12-10T11:53:11;49.20;;;19.73;;
13641;SDS011;6894;52.196;9.904;2022-12-10T11:55:46;54.23;;;23.97;;
13641;SDS011;6894;52.196;9.904;2022-12-10T11:58:22;70.07;;;28.87;;
13641;SDS011;6894;52.196;9.904;2022-12-10T12:00:59;40.30;;;19.77;;
13641;SDS011;6894;52.196;9.904;2022-12-10T12:03:34;45.43;;;21.90;;
13641;SDS011;6894;52.196;9.904;2022-12-10T12:06:19;45.17;;;22.30;;
13641;SDS011;6894;52.196;9.904;2022-12-10T12:08:59;43.90;;;18.83;;
13641;SDS011;6894;52.196;9.904;2022-12-10T12:11:36;45.53;;;20.50;;
13641;SDS011;6894;52.196;9.904;2022-12-10T12:14:16;43.47;;;17.30;;
13641;SDS011;6894;52.196;9.904;2022-12-10T12:16:49;29.07;;;15.57;;
13641;SDS011;6894;52.196;9.904;2022-12-10T12:19:28;43.77;;;18.80;;
13641;SDS011;6894;52.196;9.904;2022-12-10T12:22:02;38.70;;;19.83;;
13641;SDS011;6894;52.196;9.904;2022-12-10T12:24:36;29.83;;;15.87;;
13641;SDS011;6894;52.196;9.904;2022-12-10T12:27:08;41.17;;;17.93;;
13641;SDS011;6894;52.196;9.904;2022-12-10T12:29:41;29.93;;;15.63;;
13641;SDS011;6894;52.196;9.904;2022-12-10T12:32:15;38.50;;;17.57;;
13641;SDS011;6894;52.196;9.904;2022-12-10T12:34:46;36.27;;;17.60;;
13641;SDS011;6894;52.196;9.904;2022-12-10T12:37:20;51.13;;;25.10;;
13641;SDS011;6894;52.196;9.904;2022-12-10T12:39:52;40.63;;;22.37;;
13641;SDS011;6894;52.196;9.904;2022-12-10T12:42:27;71.03;;;31.50;;
13641;SDS011;6894;52.196;9.904;2022-12-10T12:45:01;30.23;;;18.20;;
13641;SDS011;6894;52.196;9.904;2022-12-10T12:47:34;36.40;;;15.90;;
13641;SDS011;6894;52.196;9.904;2022-12-10T12:50:11;21.83;;;12.37;;
13641;SDS011;6894;52.196;9.904;2022-12-10T12:52:52;28.43;;;13.37;;
13641;SDS011;6894;52.196;9.904;2022-12-10T12:55:24;27.27;;;14.30;;
13641;SDS011;6894;52.196;9.904;2022-12-10T12:58:00;33.83;;;16.57;;
13641;SDS011;6894;52.196;9.904;2022-12-10T13:00:37;22.40;;;13.73;;
13641;SDS011;6894;52.196;9.904;2022-12-10T13:03:07;26.80;;;13.33;;
13641;SDS011;6894;52.196;9.904;2022-12-10T13:05:51;32.50;;;16.00;;
13641;SDS011;6894;52.196;9.904;2022-12-10T13:08:23;25.00;;;14.10;;
13641;SDS011;6894;52.196;9.904;2022-12-10T13:10:56;31.90;;;14.87;;
13641;SDS011;6894;52.196;9.904;2022-12-10T13:13:27;31.00;;;15.73;;
13641;SDS011;6894;52.196;9.904;2022-12-10T13:15:56;25.03;;;14.87;;
13641;SDS011;6894;52.196;9.904;2022-12-10T13:19:22;30.00;;;14.10;;
13641;SDS011;6894;52.196;9.904;2022-12-10T13:22:01;26.07;;;13.67;;
13641;SDS011;6894;52.196;9.904;2022-12-10T13:27:40;28.07;;;13.60;;
13641;SDS011;6894;52.196;9.904;2022-12-10T13:30:29;33.30;;;15.03;;
13641;SDS011;6894;52.196;9.904;2022-12-10T13:33:05;31.57;;;15.10;;
13641;SDS011;6894;52.196;9.904;2022-12-10T13:35:48;31.47;;;14.90;;
13641;SDS011;6894;52.196;9.904;2022-12-10T13:38:22;31.80;;;15.63;;
13641;SDS011;6894;52.196;9.904;2022-12-10T13:40:57;33.50;;;14.93;;
13641;SDS011;6894;52.196;9.904;2022-12-10T13:43:52;30.63;;;15.63;;
13641;SDS011;6894;52.196;9.904;2022-12-10T13:46:52;24.33;;;13.63;;
13641;SDS011;6894;52.196;9.904;2022-12-10T13:49:22;33.67;;;15.83;;
13641;SDS011;6894;52.196;9.904;2022-12-10T13:51:54;42.43;;;20.73;;
13641;SDS011;6894;52.196;9.904;2022-12-10T13:57:30;74.33;;;30.87;;
13641;SDS011;6894;52.196;9.904;2022-12-10T14:00:15;55.27;;;22.80;;
13641;SDS011;6894;52.196;9.904;2022-12-10T14:05:42;32.33;;;16.60;;
13641;SDS011;6894;52.196;9.904;2022-12-10T14:08:26;28.60;;;15.00;;
13641;SDS011;6894;52.196;9.904;2022-12-10T14:10:56;26.17;;;15.40;;
13641;SDS011;6894;52.196;9.904;2022-12-10T14:13:27;37.10;;;16.40;;
13641;SDS011;6894;52.196;9.904;2022-12-10T14:16:01;28.93;;;17.50;;
13641;SDS011;6894;52.196;9.904;2022-12-10T14:18:30;32.23;;;15.80;;
13641;SDS011;6894;52.196;9.904;2022-12-10T14:20:57;31.47;;;17.73;;
13641;SDS011;6894;52.196;9.904;2022-12-10T14:23:29;37.03;;;15.90;;
13641;SDS011;6894;52.196;9.904;2022-12-10T14:26:03;36.77;;;17.97;;
13641;SDS011;6894;52.196;9.904;2022-12-10T14:28:32;34.63;;;16.53;;
13641;SDS011;6894;52.196;9.904;2022-12-10T14:31:05;30.77;;;15.60;;
13641;SDS011;6894;52.196;9.904;2022-12-10T14:33:37;27.03;;;15.87;;
13641;SDS011;6894;52.196;9.904;2022-12-10T14:36:04;34.87;;;16.17;;
13641;SDS011;6894;52.196;9.904;2022-12-10T14:38:33;28.33;;;15.30;;
13641;SDS011;6894;52.196;9.904;2022-12-10T14:41:01;39.93;;;19.17;;
13641;SDS011;6894;52.196;9.904;2022-12-10T14:43:31;38.00;;;20.93;;
13641;SDS011;6894;52.196;9.904;2022-12-10T14:46:06;42.93;;;17.80;;
13641;SDS011;6894;52.196;9.904;2022-12-10T14:48:40;29.63;;;16.77;;
13641;SDS011;6894;52.196;9.904;2022-12-10T14:51:10;48.07;;;23.53;;
13641;SDS011;6894;52.196;9.904;2022-12-10T14:53:40;39.97;;;20.83;;
13641;SDS011;6894;52.196;9.904;2022-12-10T14:56:07;40.27;;;18.57;;
13641;SDS011;6894;52.196;9.904;2022-12-10T14:58:39;38.87;;;22.40;;
13641;SDS011;6894;52.196;9.904;2022-12-10T15:01:10;46.70;;;20.90;;
13641;SDS011;6894;52.196;9.904;2022-12-10T15:03:43;32.83;;;18.43;;
13641;SDS011;6894;52.196;9.904;2022-12-10T15:06:12;37.23;;;17.80;;